Time;durP1;ratioP1;P1;durP2;ratioP2;P2;SDS_P1;SDS_P2;PMS_P1;PMS_P2;Temp;Humidity;BMP_temperature;BMP_pressure;BME280_temperature;BME280_humidity;BME280_pressure;Samples;Min_cycle;Max_cycle;Signal;HPM_P1;HPM_P2
2023/01/31 00:01:36;;;;;;;18.45;11.60;;;3.30;99.90;;;;;;4907970;29;20044;-80
2023/01/31 00:04:06;;;;;;;17.10;10.48;;;3.30;99.90;;;;;;4930624;29;20062;-80
2023/01/31 00:06:35;;;;;;;19.08;10.52;;;3.30;99.90;;;;;;4932014;29;20115;-80
2023/01/31 00:09:04;;;;;;;15.98;10.00;;;3.30;99.90;;;;;;4926397;29;20056;-80
2023/01/31 00:11:31;;;;;;;16.33;9.48;;;3.30;99.90;;;;;;4932511;29;20075;-80
2023/01/31 00:14:00;;;;;;;14.25;9.25;;;3.30;99.90;;;;;;4929624;29;20583;-80
2023/01/31 00:16:27;;;;;;;15.07;9.88;;;3.30;99.90;;;;;;4927526;29;20139;-80
2023/01/31 00:18:54;;;;;;;13.65;9.30;;;3.30;99.90;;;;;;4929691;29;20052;-80
2023/01/31 00:21:24;;;;;;;15.35;9.52;;;3.30;99.90;;;;;;4929729;29;20047;-79
2023/01/31 00:23:52;;;;;;;13.98;9.60;;;3.30;99.90;;;;;;4929076;29;20498;-80
2023/01/31 00:26:24;;;;;;;15.10;9.25;;;3.30;99.90;;;;;;4924313;29;20098;-80
2023/01/31 00:28:52;;;;;;;18.45;9.63;;;3.20;99.90;;;;;;4905076;29;20048;-80
2023/01/31 00:31:21;;;;;;;13.80;9.32;;;3.20;99.90;;;;;;4933207;29;20071;-79
2023/01/31 00:33:48;;;;;;;13.05;9.13;;;3.20;99.90;;;;;;4932730;29;20048;-79
2023/01/31 00:36:19;;;;;;;13.35;8.88;;;3.20;99.90;;;;;;4937809;29;20050;-80
2023/01/31 00:38:50;;;;;;;15.52;8.65;;;3.20;99.90;;;;;;4934787;29;20054;-79
2023/01/31 00:41:20;;;;;;;14.30;9.18;;;3.20;99.90;;;;;;4930196;29;20054;-80
2023/01/31 00:43:48;;;;;;;13.00;8.73;;;3.20;99.90;;;;;;4928670;29;20085;-81
2023/01/31 00:46:15;;;;;;;14.32;8.98;;;3.20;99.90;;;;;;4929874;29;20138;-80
2023/01/31 00:48:42;;;;;;;15.68;8.55;;;3.20;99.90;;;;;;4922345;29;20120;-80
2023/01/31 00:51:09;;;;;;;15.95;8.95;;;3.20;99.90;;;;;;4923404;29;20115;-80
2023/01/31 00:53:35;;;;;;;15.90;8.93;;;3.10;99.90;;;;;;4927445;29;20052;-80
2023/01/31 00:56:09;;;;;;;14.55;8.73;;;3.10;99.90;;;;;;4926583;29;20044;-80
2023/01/31 00:58:36;;;;;;;12.93;8.63;;;3.00;99.90;;;;;;4931523;29;20071;-80
2023/01/31 01:01:20;;;;;;;12.55;8.60;;;3.00;99.90;;;;;;4934016;29;20052;-80
2023/01/31 01:03:47;;;;;;;18.80;10.02;;;2.90;99.90;;;;;;4916616;29;20554;-80
2023/01/31 01:06:14;;;;;;;16.73;9.82;;;2.80;99.90;;;;;;4934875;29;20056;-79
2023/01/31 01:08:42;;;;;;;15.13;9.63;;;2.80;99.90;;;;;;4907709;29;20091;-80
2023/01/31 01:11:22;;;;;;;15.60;9.30;;;2.70;99.90;;;;;;4927315;29;20079;-80
2023/01/31 01:13:50;;;;;;;16.77;10.00;;;2.70;99.90;;;;;;4913300;29;20135;-80
2023/01/31 01:16:35;;;;;;;18.88;10.32;;;2.60;99.90;;;;;;4931295;29;20075;-80
2023/01/31 01:19:09;;;;;;;17.08;8.73;;;2.60;99.90;;;;;;4923772;29;20056;-80
2023/01/31 01:21:39;;;;;;;17.00;9.88;;;2.60;99.90;;;;;;4938173;29;20047;-80
2023/01/31 01:24:11;;;;;;;16.25;9.98;;;2.50;99.90;;;;;;4930844;29;20040;-80
2023/01/31 01:26:37;;;;;;;16.17;9.10;;;2.50;99.90;;;;;;4925977;29;20052;-80
2023/01/31 01:29:04;;;;;;;15.90;9.77;;;2.40;99.90;;;;;;4932149;29;20080;-79
2023/01/31 01:31:31;;;;;;;16.60;9.93;;;2.40;99.90;;;;;;4931782;29;20056;-80
2023/01/31 01:34:01;;;;;;;19.00;11.73;;;2.40;99.90;;;;;;4932698;29;20052;-80
2023/01/31 01:36:28;;;;;;;17.70;10.77;;;2.30;99.90;;;;;;4908010;29;20083;-80
2023/01/31 01:38:55;;;;;;;18.38;10.32;;;2.30;99.90;;;;;;4925544;29;20052;-80
2023/01/31 01:41:22;;;;;;;18.20;10.73;;;2.30;99.90;;;;;;4919968;29;20082;-80
2023/01/31 01:43:52;;;;;;;19.83;11.52;;;2.20;99.90;;;;;;4934508;29;20719;-80
2023/01/31 01:46:34;;;;;;;19.38;10.63;;;2.20;99.90;;;;;;4935666;29;20051;-80
2023/01/31 01:49:29;;;;;;;18.00;10.30;;;2.20;99.90;;;;;;4935354;29;20144;-79
2023/01/31 01:52:01;;;;;;;20.52;11.10;;;2.10;99.90;;;;;;4922218;29;20111;-79
2023/01/31 01:54:40;;;;;;;19.48;11.48;;;2.10;99.90;;;;;;4942906;29;20083;-79
2023/01/31 01:57:07;;;;;;;18.45;10.80;;;2.10;99.90;;;;;;4946477;29;20099;-79
2023/01/31 01:59:41;;;;;;;20.02;11.13;;;2.10;99.90;;;;;;4930273;29;20045;-78
2023/01/31 02:02:08;;;;;;;20.35;10.98;;;2.00;99.90;;;;;;4934002;29;20120;-79
2023/01/31 02:04:38;;;;;;;22.15;11.45;;;2.00;99.90;;;;;;4935985;29;20048;-79
2023/01/31 02:07:07;;;;;;;21.48;11.48;;;2.00;99.90;;;;;;4939536;29;20094;-79
2023/01/31 02:09:46;;;;;;;22.35;11.00;;;1.90;99.90;;;;;;4949654;29;20083;-78
2023/01/31 02:12:13;;;;;;;20.70;11.13;;;1.90;99.90;;;;;;4946718;29;20052;-78
2023/01/31 02:14:41;;;;;;;21.70;10.70;;;1.90;99.90;;;;;;4932155;29;20079;-79
2023/01/31 02:17:16;;;;;;;18.08;11.32;;;1.90;99.90;;;;;;4928359;29;20036;-79
2023/01/31 02:20:17;;;;;;;22.05;12.57;;;1.80;99.90;;;;;;4941155;29;20063;-79
2023/01/31 02:23:01;;;;;;;21.83;11.95;;;1.80;99.90;;;;;;4932892;29;20134;-80
2023/01/31 02:25:49;;;;;;;15.43;9.77;;;1.80;99.90;;;;;;4933549;29;20040;-80
2023/01/31 02:28:33;;;;;;;15.27;8.82;;;1.80;99.90;;;;;;4931968;29;20260;-80
2023/01/31 02:31:15;;;;;;;11.10;6.85;;;1.70;99.90;;;;;;4935515;29;20142;-79
2023/01/31 02:34:02;;;;;;;11.02;6.20;;;1.70;99.90;;;;;;4930598;29;20394;-79
2023/01/31 02:36:45;;;;;;;9.35;6.20;;;1.70;99.90;;;;;;4908328;29;20155;-78
2023/01/31 02:39:29;;;;;;;11.25;6.00;;;1.70;99.90;;;;;;4929604;29;20050;-78
2023/01/31 02:42:10;;;;;;;7.43;4.32;;;1.60;99.90;;;;;;4929116;29;20051;-78
2023/01/31 02:44:59;;;;;;;6.43;4.50;;;1.60;99.90;;;;;;4917649;29;20056;-78
2023/01/31 02:47:38;;;;;;;6.80;4.10;;;1.60;99.90;;;;;;4922413;29;20055;-78
2023/01/31 02:50:24;;;;;;;5.40;3.88;;;1.50;99.90;;;;;;4924587;29;20146;-78
2023/01/31 02:53:11;;;;;;;5.53;3.47;;;1.50;99.90;;;;;;4932623;29;20138;-77
2023/01/31 02:58:40;;;;;;;7.68;3.70;;;1.50;99.90;;;;;;4935234;29;20048;-78
2023/01/31 03:01:13;;;;;;;6.10;3.75;;;1.50;99.90;;;;;;4930292;29;20415;-77
2023/01/31 03:03:41;;;;;;;6.68;3.95;;;1.40;99.90;;;;;;4925767;29;20044;-78
2023/01/31 03:06:25;;;;;;;7.75;4.13;;;1.40;99.90;;;;;;4922066;29;20119;-76
2023/01/31 03:09:24;;;;;;;9.43;4.72;;;1.40;99.90;;;;;;4952541;28;20048;-75
2023/01/31 03:12:09;;;;;;;6.72;3.92;;;1.30;99.90;;;;;;4949393;29;20056;-75
2023/01/31 03:14:47;;;;;;;5.25;3.45;;;1.30;99.90;;;;;;4948726;28;20039;-76
2023/01/31 03:17:51;;;;;;;9.57;4.43;;;1.30;99.90;;;;;;4927191;29;20048;-78
2023/01/31 03:20:31;;;;;;;5.22;3.63;;;1.30;99.90;;;;;;4927090;29;20047;-77
2023/01/31 03:23:03;;;;;;;5.82;3.20;;;1.20;99.90;;;;;;4930628;29;20048;-77
2023/01/31 03:25:33;;;;;;;7.65;4.18;;;1.20;99.90;;;;;;4928692;29;20051;-79
2023/01/31 03:28:05;;;;;;;6.35;3.58;;;1.20;99.90;;;;;;4911634;29;20059;-80
2023/01/31 03:30:38;;;;;;;9.55;4.80;;;1.20;99.90;;;;;;4925062;29;20104;-80
2023/01/31 03:33:17;;;;;;;9.43;4.50;;;1.20;99.90;;;;;;4928045;29;20062;-77
2023/01/31 03:35:51;;;;;;;7.32;4.88;;;1.10;99.90;;;;;;4936021;29;20622;-77
2023/01/31 03:38:21;;;;;;;7.50;4.45;;;1.10;99.90;;;;;;4932981;29;20074;-77
2023/01/31 03:40:56;;;;;;;;;;;1.10;99.90;;;;;;4935147;29;20075;-77
2023/01/31 03:43:40;;;;;;;8.52;4.40;;;1.10;99.90;;;;;;4929999;29;19970;-80
2023/01/31 03:46:15;;;;;;;7.80;4.60;;;1.10;99.90;;;;;;4926243;29;20048;-80
2023/01/31 03:48:47;;;;;;;9.00;5.05;;;1.10;99.90;;;;;;4925595;29;20510;-78
2023/01/31 03:51:21;;;;;;;8.25;4.38;;;1.10;99.90;;;;;;4928204;29;20131;-78
2023/01/31 03:53:53;;;;;;;10.55;4.90;;;1.00;99.90;;;;;;4918428;29;20063;-80
2023/01/31 03:56:22;;;;;;;12.05;6.03;;;1.00;99.90;;;;;;4909562;29;20071;-78
2023/01/31 03:58:53;;;;;;;10.35;4.93;;;1.00;99.90;;;;;;4912804;29;20116;-77
2023/01/31 04:01:22;;;;;;;11.73;5.10;;;0.90;99.90;;;;;;4929164;29;20043;-77
2023/01/31 04:03:58;;;;;;;11.40;5.32;;;0.90;99.90;;;;;;4929551;29;20437;-78
2023/01/31 04:06:26;;;;;;;9.65;6.50;;;0.90;99.90;;;;;;4930260;29;20078;-78
2023/01/31 04:08:52;;;;;;;10.88;5.35;;;0.90;99.90;;;;;;4930590;29;20510;-80
2023/01/31 04:11:23;;;;;;;10.25;6.65;;;0.90;99.90;;;;;;4926276;29;20142;-77
2023/01/31 04:13:50;;;;;;;10.38;5.57;;;0.90;99.90;;;;;;4906915;29;20482;-78
2023/01/31 04:16:16;;;;;;;11.85;6.55;;;0.80;99.90;;;;;;4924352;29;20503;-80
2023/01/31 04:18:43;;;;;;;13.85;6.07;;;0.80;99.90;;;;;;4919851;29;20047;-79
2023/01/31 04:21:12;;;;;;;11.63;6.75;;;0.80;99.90;;;;;;4927268;29;20597;-80
2023/01/31 04:23:38;;;;;;;11.38;6.07;;;0.70;99.90;;;;;;4928397;29;20075;-80
2023/01/31 04:26:05;;;;;;;11.95;5.80;;;0.70;99.90;;;;;;4936728;29;20453;-78
2023/01/31 04:28:32;;;;;;;7.25;4.35;;;0.70;99.90;;;;;;4926097;29;20048;-80
2023/01/31 04:30:59;;;;;;;10.60;4.97;;;0.70;99.90;;;;;;4928065;29;20135;-80
2023/01/31 04:33:25;;;;;;;8.40;4.65;;;0.70;99.90;;;;;;4927631;29;20534;-80
2023/01/31 04:35:52;;;;;;;11.93;5.65;;;0.60;99.90;;;;;;4919711;29;20482;-79
2023/01/31 04:38:19;;;;;;;6.82;4.18;;;0.60;99.90;;;;;;4926896;29;20043;-80
2023/01/31 04:40:46;;;;;;;10.77;4.20;;;0.60;99.90;;;;;;4922399;29;20080;-80
2023/01/31 04:43:12;;;;;;;5.55;3.78;;;0.60;99.90;;;;;;4924528;29;20056;-79
2023/01/31 04:45:39;;;;;;;8.48;3.55;;;0.60;99.90;;;;;;4932500;29;20055;-80
2023/01/31 04:48:06;;;;;;;6.32;3.60;;;0.60;99.90;;;;;;4931549;29;20047;-80
2023/01/31 04:50:33;;;;;;;11.48;5.55;;;0.50;99.90;;;;;;4932468;29;20056;-80
2023/01/31 04:53:00;;;;;;;10.90;6.18;;;0.60;99.90;;;;;;4930993;29;20062;-80
2023/01/31 04:55:26;;;;;;;14.10;6.72;;;0.50;99.90;;;;;;4913384;29;20048;-79
2023/01/31 04:57:53;;;;;;;15.85;7.55;;;0.50;99.90;;;;;;4923665;29;20062;-78
2023/01/31 05:00:20;;;;;;;13.75;6.90;;;0.50;99.90;;;;;;4926271;29;20083;-80
2023/01/31 05:02:48;;;;;;;14.50;7.60;;;0.50;99.90;;;;;;4918994;29;20118;-80
2023/01/31 05:05:15;;;;;;;15.43;7.35;;;0.50;99.90;;;;;;4926313;29;20050;-80
2023/01/31 05:07:43;;;;;;;14.25;8.02;;;0.40;99.90;;;;;;4923024;29;20096;-80
2023/01/31 05:10:10;;;;;;;14.63;8.93;;;0.50;99.90;;;;;;4922179;29;20454;-79
2023/01/31 05:12:37;;;;;;;17.63;9.68;;;0.50;99.90;;;;;;4930222;29;20407;-80
2023/01/31 05:15:06;;;;;;;22.33;10.23;;;0.50;99.90;;;;;;4930833;29;20053;-79
2023/01/31 05:17:33;;;;;;;14.13;8.80;;;0.50;99.90;;;;;;4929638;29;20127;-79
2023/01/31 05:20:00;;;;;;;23.60;10.85;;;0.50;99.90;;;;;;4930985;29;20051;-80
2023/01/31 05:22:27;;;;;;;18.15;9.32;;;0.60;99.90;;;;;;4926265;29;20048;-79
2023/01/31 05:24:54;;;;;;;17.13;8.95;;;0.60;99.90;;;;;;4908522;29;20094;-80
2023/01/31 05:27:25;;;;;;;19.80;10.27;;;0.60;99.90;;;;;;4920910;29;20119;-79
2023/01/31 05:29:51;;;;;;;15.70;7.53;;;0.60;99.90;;;;;;4934224;29;20070;-80
2023/01/31 05:32:18;;;;;;;18.42;8.55;;;0.60;99.90;;;;;;4912452;29;20048;-79
2023/01/31 05:34:45;;;;;;;16.95;10.07;;;0.60;99.90;;;;;;4919275;29;20052;-79
2023/01/31 05:37:12;;;;;;;13.10;7.05;;;0.60;99.90;;;;;;4931877;29;20467;-80
2023/01/31 05:39:38;;;;;;;12.90;7.65;;;0.60;99.90;;;;;;4928722;29;20116;-80
2023/01/31 05:42:05;;;;;;;12.40;7.25;;;0.70;99.90;;;;;;4914686;29;20062;-79
2023/01/31 05:44:32;;;;;;;20.80;7.93;;;0.70;99.90;;;;;;4930480;29;20040;-80
2023/01/31 05:46:59;;;;;;;17.65;8.00;;;0.70;99.90;;;;;;4931966;29;20087;-80
2023/01/31 05:49:32;;;;;;;15.40;7.25;;;0.70;99.90;;;;;;4927536;29;20056;-80
2023/01/31 05:51:59;;;;;;;13.90;7.30;;;0.70;99.90;;;;;;4923785;29;20451;-80
2023/01/31 05:54:26;;;;;;;15.43;7.53;;;0.70;99.90;;;;;;4915699;29;20498;-79
2023/01/31 05:56:53;;;;;;;15.68;7.97;;;0.80;99.90;;;;;;4916731;29;20139;-80
2023/01/31 05:59:20;;;;;;;13.88;7.80;;;0.80;99.90;;;;;;4934365;29;20043;-80
2023/01/31 06:01:46;;;;;;;13.52;7.20;;;0.80;99.90;;;;;;4934849;29;20079;-79
2023/01/31 06:04:13;;;;;;;20.52;7.78;;;0.80;99.90;;;;;;4930735;29;20110;-80
2023/01/31 06:06:41;;;;;;;14.40;6.63;;;0.80;99.90;;;;;;4925962;29;20044;-80
2023/01/31 06:09:08;;;;;;;15.13;6.93;;;0.90;99.90;;;;;;4928004;29;20103;-80
2023/01/31 06:11:34;;;;;;;22.25;8.82;;;0.90;99.90;;;;;;4912443;29;20084;-80
2023/01/31 06:14:01;;;;;;;14.43;7.65;;;0.90;99.90;;;;;;4932457;29;20475;-80
2023/01/31 06:16:28;;;;;;;18.40;7.90;;;0.90;99.90;;;;;;4909788;29;20088;-79
2023/01/31 06:18:55;;;;;;;14.10;8.48;;;0.90;99.90;;;;;;4923443;29;20052;-80
2023/01/31 06:21:22;;;;;;;15.98;8.38;;;0.90;99.90;;;;;;4928387;29;20071;-80
2023/01/31 06:23:49;;;;;;;16.27;8.77;;;0.90;99.90;;;;;;4930817;29;20055;-80
2023/01/31 06:26:16;;;;;;;18.95;8.38;;;0.90;99.90;;;;;;4921103;29;20055;-80
2023/01/31 06:28:42;;;;;;;17.27;9.07;;;0.90;99.90;;;;;;4932949;29;20130;-80
2023/01/31 06:31:12;;;;;;;17.13;8.55;;;0.90;99.90;;;;;;4927118;29;20060;-80
2023/01/31 06:33:39;;;;;;;18.33;8.15;;;0.90;99.90;;;;;;4924700;29;20069;-80
2023/01/31 06:36:13;;;;;;;20.05;8.48;;;0.90;99.90;;;;;;4924200;29;20102;-80
2023/01/31 06:38:42;;;;;;;15.52;8.30;;;0.90;99.90;;;;;;4935181;29;20119;-80
2023/01/31 06:41:09;;;;;;;67.30;30.30;;;0.80;99.90;;;;;;4930071;29;20073;-80
2023/01/31 06:43:36;;;;;;;43.05;20.35;;;0.80;99.90;;;;;;4930561;29;20111;-80
2023/01/31 06:46:03;;;;;;;27.65;12.90;;;0.70;99.90;;;;;;4936625;29;20059;-79
2023/01/31 06:48:29;;;;;;;35.30;15.45;;;0.70;99.90;;;;;;4927172;29;20051;-80
2023/01/31 06:50:56;;;;;;;29.35;13.68;;;0.70;99.90;;;;;;4928374;29;20055;-80
2023/01/31 06:53:23;;;;;;;18.60;9.55;;;0.70;99.90;;;;;;4919898;29;20700;-80
2023/01/31 06:55:49;;;;;;;20.77;9.10;;;0.70;99.90;;;;;;4928211;29;20054;-80
2023/01/31 06:58:17;;;;;;;20.13;8.75;;;0.70;99.90;;;;;;4917856;29;20442;-80
2023/01/31 07:00:46;;;;;;;16.42;7.75;;;0.70;99.90;;;;;;4921890;29;20048;-79
2023/01/31 07:03:13;;;;;;;15.60;8.00;;;0.70;99.90;;;;;;4915326;29;20055;-80
2023/01/31 07:05:40;;;;;;;16.75;7.35;;;0.70;99.90;;;;;;4935804;29;20043;-79
2023/01/31 07:08:07;;;;;;;10.55;7.03;;;0.70;99.90;;;;;;4933750;29;20399;-80
2023/01/31 07:10:33;;;;;;;15.25;6.65;;;0.70;99.90;;;;;;4932700;29;20075;-80
2023/01/31 07:13:00;;;;;;;11.82;6.35;;;0.70;99.90;;;;;;4932452;29;20146;-80
2023/01/31 07:15:27;;;;;;;13.57;6.20;;;0.70;99.90;;;;;;4931114;29;20045;-80
2023/01/31 07:17:58;;;;;;;10.57;6.53;;;0.70;99.90;;;;;;4905401;29;20044;-79
2023/01/31 07:20:25;;;;;;;17.13;7.10;;;0.80;99.90;;;;;;4925803;29;20142;-80
2023/01/31 07:22:56;;;;;;;9.40;5.70;;;0.80;99.90;;;;;;4931017;29;20127;-80
2023/01/31 07:25:24;;;;;;;13.10;6.75;;;0.80;99.90;;;;;;4929243;29;20048;-80
2023/01/31 07:27:51;;;;;;;10.27;5.32;;;0.80;99.90;;;;;;4923574;29;20090;-79
2023/01/31 07:30:18;;;;;;;10.52;6.18;;;0.80;99.90;;;;;;4927148;29;20159;-80
2023/01/31 07:32:45;;;;;;;12.43;5.95;;;0.80;99.90;;;;;;4928018;29;20052;-77
2023/01/31 07:35:12;;;;;;;10.10;5.85;;;0.80;99.90;;;;;;4930471;29;20048;-80
2023/01/31 07:37:42;;;;;;;10.50;5.47;;;0.90;99.90;;;;;;4929841;29;20054;-80
2023/01/31 07:40:10;;;;;;;12.45;6.35;;;0.90;99.90;;;;;;4912205;29;20075;-79
2023/01/31 07:42:38;;;;;;;14.77;7.82;;;0.90;99.90;;;;;;4928507;29;20127;-80
2023/01/31 07:45:06;;;;;;;16.70;8.25;;;0.90;99.90;;;;;;4922934;29;20435;-80
2023/01/31 07:47:49;;;;;;;17.27;7.85;;;0.90;99.90;;;;;;4929151;29;20051;-80
2023/01/31 07:50:16;;;;;;;13.27;7.43;;;0.90;99.90;;;;;;4928994;29;20059;-80
2023/01/31 07:52:43;;;;;;;10.07;6.45;;;1.00;99.90;;;;;;4930795;29;20135;-80
2023/01/31 07:55:09;;;;;;;13.43;6.30;;;0.90;99.90;;;;;;4933252;29;20549;-78
2023/01/31 07:57:36;;;;;;;11.27;7.35;;;0.90;99.90;;;;;;4930089;29;20083;-80
2023/01/31 08:03:31;;;;;;;14.65;8.95;;;1.00;99.90;;;;;;4929372;29;20048;-78
2023/01/31 08:05:36;;;;;;;18.83;9.85;;;1.00;99.90;;;;;;4928880;29;20051;-80
2023/01/31 08:08:09;;;;;;;22.58;11.13;;;1.00;99.90;;;;;;4929314;29;20075;-79
2023/01/31 08:10:36;;;;;;;19.58;10.85;;;1.00;99.90;;;;;;4926691;29;20114;-80
2023/01/31 08:13:03;;;;;;;21.77;11.90;;;1.10;99.90;;;;;;4923492;29;20064;-80
2023/01/31 08:15:30;;;;;;;20.02;11.23;;;1.10;99.90;;;;;;4927400;29;20260;-79
2023/01/31 08:17:57;;;;;;;21.48;12.00;;;1.10;99.90;;;;;;4929456;29;20054;-77
2023/01/31 08:20:24;;;;;;;21.25;10.85;;;1.00;99.90;;;;;;4949050;28;20040;-77
2023/01/31 08:22:50;;;;;;;21.60;11.27;;;1.00;99.90;;;;;;4953419;28;20047;-78
2023/01/31 08:25:17;;;;;;;25.77;12.15;;;1.00;99.90;;;;;;4940130;28;20036;-78
2023/01/31 08:27:46;;;;;;;25.45;12.73;;;1.00;99.90;;;;;;4951396;28;20103;-77
2023/01/31 08:30:13;;;;;;;24.45;12.93;;;1.00;99.90;;;;;;4933224;28;20048;-78
2023/01/31 08:32:39;;;;;;;24.65;13.95;;;1.10;99.90;;;;;;4929917;29;20071;-80
2023/01/31 08:35:06;;;;;;;27.48;13.98;;;1.10;99.90;;;;;;4930408;29;20540;-79
2023/01/31 08:37:34;;;;;;;25.48;13.38;;;1.10;99.90;;;;;;4924016;29;20396;-79
2023/01/31 08:40:00;;;;;;;23.35;13.25;;;1.10;99.90;;;;;;4918851;29;20054;-78
2023/01/31 08:42:27;;;;;;;23.58;12.93;;;1.10;99.90;;;;;;4924105;29;20051;-80
2023/01/31 08:44:54;;;;;;;24.52;13.60;;;1.20;99.90;;;;;;4931466;29;20055;-79
2023/01/31 08:47:22;;;;;;;20.73;12.73;;;1.20;99.90;;;;;;4918410;29;20040;-80
2023/01/31 08:49:48;;;;;;;21.40;12.00;;;1.20;99.90;;;;;;4928874;29;20076;-80
2023/01/31 08:52:15;;;;;;;20.27;10.98;;;1.30;99.90;;;;;;4918226;29;20126;-79
2023/01/31 08:54:42;;;;;;;19.17;11.40;;;1.30;99.90;;;;;;4926249;29;20070;-80
2023/01/31 08:57:08;;;;;;;22.50;12.35;;;1.30;99.90;;;;;;4931508;29;20175;-80
2023/01/31 08:59:35;;;;;;;20.85;12.55;;;1.40;99.90;;;;;;4936095;29;20492;-80
2023/01/31 09:02:02;;;;;;;26.55;12.90;;;1.40;99.90;;;;;;4930940;29;20139;-80
2023/01/31 09:04:29;;;;;;;23.48;13.57;;;1.50;99.90;;;;;;4918302;29;20044;-79
2023/01/31 09:06:56;;;;;;;25.58;13.63;;;1.50;99.90;;;;;;4934521;29;20124;-80
2023/01/31 09:09:24;;;;;;;22.33;12.93;;;1.50;99.90;;;;;;4923522;29;20056;-80
2023/01/31 09:11:51;;;;;;;19.98;12.63;;;1.60;99.90;;;;;;4919010;29;20052;-78
2023/01/31 09:14:18;;;;;;;23.55;13.25;;;1.60;99.90;;;;;;4934705;29;20075;-79
2023/01/31 09:16:45;;;;;;;23.00;13.43;;;1.60;99.90;;;;;;4922447;29;20119;-78
2023/01/31 09:19:12;;;;;;;27.10;13.30;;;1.60;99.90;;;;;;4921605;29;20498;-80
2023/01/31 09:21:39;;;;;;;24.98;13.02;;;1.70;99.90;;;;;;4925209;29;20146;-80
2023/01/31 09:24:06;;;;;;;20.42;12.52;;;1.80;99.90;;;;;;4926061;29;20047;-79
2023/01/31 09:26:32;;;;;;;18.73;12.13;;;1.90;99.90;;;;;;4913557;29;20056;-80
2023/01/31 09:29:00;;;;;;;23.55;12.32;;;1.90;99.90;;;;;;4934019;29;20060;-80
2023/01/31 09:31:27;;;;;;;19.85;11.73;;;2.10;99.90;;;;;;4932921;29;20111;-79
2023/01/31 09:33:54;;;;;;;19.65;10.63;;;2.10;99.90;;;;;;4922421;29;20056;-80
2023/01/31 09:36:23;;;;;;;18.15;11.38;;;2.20;99.90;;;;;;4928152;29;20443;-80
2023/01/31 09:38:57;;;;;;;24.83;11.77;;;2.20;99.90;;;;;;4925411;29;20047;-80
2023/01/31 09:41:33;;;;;;;17.98;9.80;;;2.30;99.90;;;;;;4927899;29;20061;-79
2023/01/31 09:44:10;;;;;;;21.00;11.45;;;2.30;99.90;;;;;;4933886;29;20054;-79
2023/01/31 09:46:42;;;;;;;16.60;9.43;;;2.30;99.90;;;;;;4917531;29;20198;-78
2023/01/31 09:49:18;;;;;;;20.67;11.10;;;2.30;99.90;;;;;;4937496;29;20110;-79
2023/01/31 09:51:50;;;;;;;18.88;10.50;;;2.30;99.90;;;;;;4934978;29;20127;-79
2023/01/31 09:54:26;;;;;;;18.08;9.95;;;2.30;99.90;;;;;;4926241;29;20052;-80
2023/01/31 09:57:08;;;;;;;18.55;10.68;;;2.30;99.90;;;;;;4913977;29;20055;-80
2023/01/31 09:59:48;;;;;;;18.02;9.73;;;2.30;99.90;;;;;;4930527;29;20076;-80
2023/01/31 10:02:27;;;;;;;15.20;9.88;;;2.30;99.90;;;;;;4930556;29;20075;-80
2023/01/31 10:05:20;;;;;;;15.50;10.07;;;2.30;99.90;;;;;;4931345;29;20561;-80
2023/01/31 10:08:02;;;;;;;15.38;8.98;;;2.40;99.90;;;;;;4911995;29;20414;-80
2023/01/31 10:11:02;;;;;;;15.07;8.65;;;2.40;99.90;;;;;;4931714;29;20051;-80
2023/01/31 10:13:35;;;;;;;;;;;2.40;99.90;;;;;;4889440;29;20051;-80
2023/01/31 10:16:14;;;;;;;13.63;8.50;;;2.50;99.90;;;;;;4935599;29;19934;-80
2023/01/31 10:18:46;;;;;;;18.55;10.73;;;2.50;99.90;;;;;;4930839;29;20040;-80
2023/01/31 10:21:17;;;;;;;13.45;8.80;;;2.60;99.90;;;;;;4918852;29;20054;-81
2023/01/31 10:24:04;;;;;;;13.70;9.25;;;2.70;99.90;;;;;;4930831;29;20138;-80
2023/01/31 10:26:35;;;;;;;15.07;8.15;;;2.80;99.90;;;;;;4913459;29;20119;-80
2023/01/31 10:29:05;;;;;;;14.25;7.70;;;2.90;99.90;;;;;;4928276;29;20493;-79
2023/01/31 10:31:47;;;;;;;17.33;8.27;;;3.00;99.90;;;;;;4917312;29;20044;-82
2023/01/31 10:34:28;;;;;;;12.25;7.13;;;3.10;99.90;;;;;;4916435;29;20051;-79
2023/01/31 10:37:12;;;;;;;10.77;6.18;;;3.20;99.90;;;;;;4933716;29;20063;-81
2023/01/31 10:39:51;;;;;;;12.05;5.80;;;3.30;99.90;;;;;;4932186;29;20043;-80
2023/01/31 10:42:38;;;;;;;10.77;6.13;;;3.50;99.90;;;;;;4928574;29;20135;-80
2023/01/31 10:45:29;;;;;;;10.02;5.90;;;3.60;99.90;;;;;;4931341;29;20137;-79
2023/01/31 10:48:10;;;;;;;9.50;5.30;;;3.70;99.90;;;;;;4931663;29;20055;-79
2023/01/31 10:50:59;;;;;;;7.90;5.20;;;3.90;99.90;;;;;;4925972;29;20734;-80
2023/01/31 10:53:45;;;;;;;8.00;5.03;;;3.90;99.90;;;;;;4929385;29;20189;-80
2023/01/31 10:56:25;;;;;;;10.70;5.85;;;4.00;99.90;;;;;;4928544;29;20570;-80
2023/01/31 10:58:53;;;;;;;8.40;5.32;;;3.90;99.90;;;;;;4931580;29;20058;-80
2023/01/31 11:01:20;;;;;;;12.65;5.43;;;3.90;99.90;;;;;;4930406;29;20075;-80
2023/01/31 11:03:52;;;;;;;10.25;6.00;;;3.90;99.90;;;;;;4908869;29;20492;-80
2023/01/31 11:06:20;;;;;;;8.88;5.65;;;3.90;99.90;;;;;;4918833;29;20044;-80
2023/01/31 11:08:58;;;;;;;12.07;5.07;;;3.90;99.90;;;;;;4928623;29;20051;-80
2023/01/31 11:11:27;;;;;;;11.15;6.03;;;3.90;99.90;;;;;;4930810;29;20058;-80
2023/01/31 11:13:55;;;;;;;9.75;4.55;;;3.90;99.90;;;;;;4929823;29;20145;-79
2023/01/31 11:16:23;;;;;;;12.75;5.72;;;3.90;99.90;;;;;;4913569;29;20056;-78
2023/01/31 11:18:51;;;;;;;9.75;5.25;;;3.90;99.90;;;;;;4926892;29;20055;-80
2023/01/31 11:21:25;;;;;;;10.05;5.95;;;3.90;99.90;;;;;;4924328;29;20122;-80
2023/01/31 11:24:01;;;;;;;11.98;5.82;;;4.00;99.90;;;;;;4932186;29;20514;-80
2023/01/31 11:26:38;;;;;;;13.20;6.05;;;4.00;99.90;;;;;;4930926;29;20043;-80
2023/01/31 11:29:15;;;;;;;10.48;5.45;;;4.00;99.90;;;;;;4918818;29;20185;-80
2023/01/31 11:31:46;;;;;;;11.38;5.78;;;4.10;99.90;;;;;;4930752;29;20043;-79
2023/01/31 11:34:28;;;;;;;11.95;6.07;;;4.10;99.90;;;;;;4917533;29;20048;-80
2023/01/31 11:37:17;;;;;;;12.25;5.53;;;4.10;99.90;;;;;;4912002;29;20087;-81
2023/01/31 11:40:14;;;;;;;9.45;5.50;;;4.10;99.90;;;;;;4926836;29;20043;-79
2023/01/31 11:42:54;;;;;;;12.90;5.45;;;4.20;99.90;;;;;;4922198;29;20072;-80
2023/01/31 11:45:33;;;;;;;8.25;5.00;;;4.20;99.90;;;;;;4925477;29;20123;-80
2023/01/31 11:48:15;;;;;;;8.35;5.25;;;4.20;99.90;;;;;;4931026;29;20047;-80
2023/01/31 11:50:53;;;;;;;9.38;6.03;;;4.30;99.90;;;;;;4928402;29;20486;-80
2023/01/31 11:53:31;;;;;;;12.15;5.07;;;4.40;99.90;;;;;;4930128;29;20109;-80
2023/01/31 11:56:18;;;;;;;10.82;5.60;;;4.40;99.90;;;;;;4933245;29;20098;-80
2023/01/31 11:58:48;;;;;;;9.23;6.03;;;4.60;99.90;;;;;;4907535;29;20490;-79
2023/01/31 12:01:21;;;;;;;11.70;6.15;;;4.60;99.90;;;;;;4912123;29;20225;-79
2023/01/31 12:04:02;;;;;;;10.23;5.57;;;4.70;99.90;;;;;;4929509;29;20162;-80
2023/01/31 12:06:39;;;;;;;9.95;5.45;;;4.80;99.90;;;;;;4911283;29;20072;-80
2023/01/31 12:09:18;;;;;;;10.15;5.00;;;4.90;99.90;;;;;;4932695;29;20087;-80
2023/01/31 12:11:57;;;;;;;10.50;5.45;;;5.00;99.90;;;;;;4927542;29;20048;-78
2023/01/31 12:14:38;;;;;;;10.90;5.20;;;5.00;99.90;;;;;;4926120;29;20131;-79
2023/01/31 12:17:09;;;;;;;10.18;5.38;;;5.10;99.90;;;;;;4913407;29;20532;-80
2023/01/31 12:20:05;;;;;;;9.73;4.45;;;5.20;99.90;;;;;;4929041;29;20079;-80
2023/01/31 12:23:06;;;;;;;7.45;4.65;;;5.30;99.90;;;;;;4927790;29;20044;-79
2023/01/31 12:25:54;;;;;;;8.77;4.20;;;5.40;99.90;;;;;;4923714;29;20416;-79
2023/01/31 12:28:31;;;;;;;8.60;4.20;;;5.50;99.90;;;;;;4922988;29;20142;-80
2023/01/31 12:31:04;;;;;;;9.77;4.55;;;5.70;99.90;;;;;;4931970;29;20546;-80
2023/01/31 12:33:34;;;;;;;7.70;3.88;;;5.70;99.90;;;;;;4933586;29;20071;-80
2023/01/31 12:36:25;;;;;;;9.27;4.38;;;5.80;99.90;;;;;;4933212;29;20130;-80
2023/01/31 12:39:23;;;;;;;;;;;5.80;99.90;;;;;;4932401;29;20047;-80
2023/01/31 12:42:12;;;;;;;8.98;3.80;;;5.90;99.90;;;;;;4902382;29;19990;-80
2023/01/31 12:44:46;;;;;;;10.35;4.38;;;5.90;99.90;;;;;;4919914;29;20047;-80
2023/01/31 12:47:22;;;;;;;7.57;3.92;;;6.00;99.90;;;;;;4933648;29;20047;-80
2023/01/31 12:49:51;;;;;;;6.10;3.17;;;6.00;99.90;;;;;;4931304;29;20083;-80
2023/01/31 12:52:57;;;;;;;8.37;3.60;;;6.10;99.90;;;;;;4926435;29;20054;-79
2023/01/31 12:55:54;;;;;;;6.65;3.28;;;6.10;99.90;;;;;;4916625;29;20798;-80
2023/01/31 12:58:33;;;;;;;7.25;4.30;;;6.10;99.90;;;;;;4917791;29;20052;-77
2023/01/31 13:01:08;;;;;;;9.45;3.78;;;6.10;99.90;;;;;;4918360;29;20131;-80
2023/01/31 13:03:49;;;;;;;7.22;3.55;;;6.10;99.90;;;;;;4930314;29;20052;-77
2023/01/31 13:06:22;;;;;;;10.13;4.22;;;6.10;99.90;;;;;;4933744;29;20051;-79
2023/01/31 13:08:58;;;;;;;8.88;4.03;;;6.10;99.90;;;;;;4929007;29;20082;-79
2023/01/31 13:11:43;;;;;;;10.13;3.90;;;6.20;99.90;;;;;;4919989;29;20056;-80
2023/01/31 13:14:20;;;;;;;10.80;4.28;;;6.20;99.90;;;;;;4919755;29;20146;-79
2023/01/31 13:16:53;;;;;;;7.43;3.90;;;6.20;99.90;;;;;;4935277;29;20067;-79
2023/01/31 13:19:25;;;;;;;7.38;3.55;;;6.20;99.90;;;;;;4933213;29;20043;-79
2023/01/31 13:22:00;;;;;;;9.38;4.20;;;6.30;99.90;;;;;;4919790;29;20040;-80